createdAt,value
2018-05-13T00:00:33.209Z,16.58
2018-05-13T00:01:33.226Z,16.46
2018-05-13T00:02:33.145Z,16.46
2018-05-13T00:03:33.111Z,16.42
2018-05-13T00:04:33.083Z,16.31
2018-05-13T00:05:33.050Z,16.24
2018-05-13T00:06:33.008Z,16.15
2018-05-13T00:07:32.975Z,16.17
2018-05-13T00:08:32.947Z,16.10
2018-05-13T00:09:32.922Z,16.16
2018-05-13T00:10:32.876Z,16.16
2018-05-13T00:11:32.848Z,16.17
2018-05-13T00:12:32.812Z,16.15
2018-05-13T00:13:32.777Z,16.12
2018-05-13T00:14:32.748Z,16.16
2018-05-13T00:15:32.714Z,16.12
2018-05-13T00:16:32.681Z,16.09
2018-05-13T00:17:32.650Z,16.05
2018-05-13T00:18:32.609Z,16.10
2018-05-13T00:19:32.580Z,16.01
2018-05-13T00:20:32.548Z,15.98
2018-05-13T00:21:32.510Z,16.01
2018-05-13T00:22:32.486Z,16.04
2018-05-13T00:23:32.451Z,16.09
2018-05-13T00:24:32.415Z,16.24
2018-05-13T00:25:32.379Z,16.23
2018-05-13T00:26:32.349Z,16.32
2018-05-13T00:27:32.317Z,16.28
2018-05-13T00:28:32.283Z,16.20
2018-05-13T00:29:32.250Z,16.21
2018-05-13T00:30:32.212Z,16.16
2018-05-13T00:31:32.181Z,16.15
2018-05-13T00:32:32.149Z,16.05
2018-05-13T00:33:32.113Z,16.01
2018-05-13T00:34:32.086Z,15.84
2018-05-13T00:35:32.051Z,15.92
2018-05-13T00:36:32.017Z,15.97
2018-05-13T00:37:31.986Z,16.08
2018-05-13T00:38:31.946Z,16.23
2018-05-13T00:39:31.916Z,16.38
2018-05-13T00:40:31.883Z,16.53
2018-05-13T00:41:31.851Z,16.50
2018-05-13T00:42:31.810Z,16.68
2018-05-13T00:43:31.780Z,16.79
2018-05-13T00:44:31.747Z,16.94
2018-05-13T00:45:31.713Z,17.06
2018-05-13T00:46:31.684Z,17.15
2018-05-13T00:47:31.654Z,17.24
2018-05-13T00:48:31.616Z,17.27
2018-05-13T00:49:31.583Z,17.34
2018-05-13T00:50:31.593Z,17.36
2018-05-13T00:51:31.514Z,17.46
2018-05-13T00:52:31.480Z,17.63
2018-05-13T00:53:31.445Z,17.65
2018-05-13T00:54:31.416Z,17.60
2018-05-13T00:55:31.383Z,17.70
2018-05-13T00:56:31.346Z,17.79
2018-05-13T00:57:31.309Z,17.74
2018-05-13T00:58:31.284Z,17.82
2018-05-13T00:59:31.249Z,17.87
2018-05-13T01:00:31.219Z,17.86
2018-05-13T01:01:31.183Z,17.90
2018-05-13T01:02:31.143Z,18.00
2018-05-13T01:03:31.116Z,18.16
2018-05-13T01:04:31.080Z,18.03
2018-05-13T01:05:31.083Z,18.03
2018-05-13T01:06:31.027Z,18.07
2018-05-13T01:07:30.985Z,18.05
2018-05-13T01:08:30.949Z,18.03
2018-05-13T01:09:30.917Z,18.03
2018-05-13T01:10:30.876Z,18.11
2018-05-13T01:11:30.851Z,18.25
2018-05-13T01:12:30.816Z,18.25
2018-05-13T01:13:30.785Z,18.20
2018-05-13T01:14:30.746Z,18.22
2018-05-13T01:15:30.714Z,18.13
2018-05-13T01:16:30.683Z,18.10
2018-05-13T01:17:30.648Z,18.04
2018-05-13T01:18:30.621Z,18.16
2018-05-13T01:19:30.589Z,18.13
2018-05-13T01:20:30.551Z,17.92
2018-05-13T01:21:30.520Z,17.76
2018-05-13T01:22:30.482Z,17.63
2018-05-13T01:23:30.452Z,17.33
2018-05-13T01:24:30.419Z,17.19
2018-05-13T01:25:30.380Z,16.96
2018-05-13T01:26:30.358Z,16.76
2018-05-13T01:27:30.322Z,16.66
2018-05-13T01:28:30.291Z,16.43
2018-05-13T01:29:30.252Z,16.43
2018-05-13T01:30:30.219Z,16.46
2018-05-13T01:31:30.187Z,16.47
2018-05-13T01:32:30.151Z,16.49
2018-05-13T01:33:30.122Z,16.43
2018-05-13T01:34:30.081Z,16.47
2018-05-13T01:35:30.052Z,16.49
2018-05-13T01:36:30.017Z,16.50
2018-05-13T01:37:29.982Z,16.46
2018-05-13T01:38:29.953Z,16.43
2018-05-13T01:39:29.920Z,16.32
2018-05-13T01:40:29.885Z,16.12
2018-05-13T01:41:29.854Z,15.97
2018-05-13T01:42:29.816Z,15.95
2018-05-13T01:43:29.784Z,15.88
2018-05-13T01:44:29.751Z,15.91
2018-05-13T01:45:29.718Z,16.04
2018-05-13T01:46:29.681Z,15.98
2018-05-13T01:47:29.649Z,16.02
2018-05-13T01:48:29.619Z,16.12
2018-05-13T01:49:29.578Z,16.28
2018-05-13T01:50:29.550Z,16.24
2018-05-13T01:51:29.516Z,16.29
2018-05-13T01:52:29.480Z,16.21
2018-05-13T01:53:29.453Z,16.20
2018-05-13T01:54:29.410Z,16.17
2018-05-13T01:55:29.380Z,16.23
2018-05-13T01:56:29.344Z,16.24
2018-05-13T01:57:29.309Z,16.15
2018-05-13T01:58:29.281Z,16.12
2018-05-13T01:59:29.245Z,16.13
2018-05-13T02:00:29.209Z,16.20
2018-05-13T02:01:29.173Z,16.24
2018-05-13T02:02:29.144Z,16.24
2018-05-13T02:03:29.107Z,16.32
2018-05-13T02:04:29.076Z,16.36
2018-05-13T02:05:29.042Z,16.43
2018-05-13T02:06:29.008Z,16.49
2018-05-13T02:07:28.976Z,16.47
2018-05-13T02:08:28.938Z,16.49
2018-05-13T02:09:28.900Z,16.53
2018-05-13T02:10:28.874Z,16.49
2018-05-13T02:11:28.839Z,16.41
2018-05-13T02:12:28.802Z,16.26
2018-05-13T02:13:28.773Z,16.17
2018-05-13T02:14:28.733Z,16.10
2018-05-13T02:15:28.702Z,16.09
2018-05-13T02:16:28.668Z,16.15
2018-05-13T02:17:28.635Z,16.13
2018-05-13T02:18:28.594Z,16.02
2018-05-13T02:19:28.566Z,16.01
2018-05-13T02:20:28.532Z,15.92
2018-05-13T02:21:28.494Z,15.98
2018-05-13T02:22:28.467Z,15.97
2018-05-13T02:23:28.432Z,15.91
2018-05-13T02:24:28.399Z,15.92
2018-05-13T02:25:28.365Z,15.98
2018-05-13T02:26:28.327Z,15.91
2018-05-13T02:27:28.295Z,15.94
2018-05-13T02:28:28.259Z,15.90
2018-05-13T02:29:28.225Z,15.92
2018-05-13T02:30:28.196Z,15.94
2018-05-13T02:31:28.160Z,15.97
2018-05-13T02:32:28.123Z,16.05
2018-05-13T02:33:28.089Z,16.02
2018-05-13T02:34:28.898Z,16.05
2018-05-13T02:35:28.024Z,16.04
2018-05-13T02:36:27.989Z,16.04
2018-05-13T02:37:27.957Z,16.08
2018-05-13T02:38:27.916Z,15.98
2018-05-13T02:39:27.887Z,15.97
2018-05-13T02:40:27.852Z,15.95
2018-05-13T02:41:27.816Z,15.95
2018-05-13T02:42:27.788Z,15.97
2018-05-13T02:43:27.753Z,16.04
2018-05-13T02:44:27.720Z,16.08
2018-05-13T02:45:27.686Z,16.10
2018-05-13T02:46:27.673Z,16.13
2018-05-13T02:47:27.616Z,16.15
2018-05-13T02:48:27.584Z,16.12
2018-05-13T02:49:27.551Z,16.09
2018-05-13T02:50:27.512Z,16.12
2018-05-13T02:51:27.480Z,16.08
2018-05-13T02:52:27.445Z,16.02
2018-05-13T02:53:27.411Z,16.00
2018-05-13T02:54:27.381Z,16.08
2018-05-13T02:55:27.347Z,16.17
2018-05-13T02:56:27.311Z,16.20
2018-05-13T02:57:27.279Z,16.21
2018-05-13T02:58:27.243Z,16.28
2018-05-13T02:59:27.210Z,16.33
2018-05-13T03:00:27.174Z,16.36
2018-05-13T03:01:27.135Z,16.47
2018-05-13T03:02:27.109Z,16.49
2018-05-13T03:03:27.076Z,16.43
2018-05-13T03:04:27.041Z,16.39
2018-05-13T03:05:27.004Z,16.57
2018-05-13T03:06:26.980Z,16.47
2018-05-13T03:07:26.939Z,16.54
2018-05-13T03:08:26.910Z,16.60
2018-05-13T03:09:26.885Z,16.50
2018-05-13T03:10:26.841Z,16.50
2018-05-13T03:11:26.806Z,16.46
2018-05-13T03:12:26.765Z,16.53
2018-05-13T03:13:26.733Z,16.54
2018-05-13T03:14:26.705Z,16.53
2018-05-13T03:15:26.674Z,16.49
2018-05-13T03:16:26.632Z,16.50
2018-05-13T03:17:26.601Z,16.43
2018-05-13T03:18:26.567Z,16.51
2018-05-13T03:19:26.531Z,16.53
2018-05-13T03:20:26.499Z,16.51
2018-05-13T03:21:26.473Z,16.47
2018-05-13T03:22:26.427Z,16.51
2018-05-13T03:23:26.400Z,16.51
2018-05-13T03:24:26.361Z,16.50
2018-05-13T03:25:26.331Z,16.49
2018-05-13T03:26:26.299Z,16.51
2018-05-13T03:27:26.262Z,16.49
2018-05-13T03:28:26.230Z,16.43
2018-05-13T03:29:26.195Z,16.42
2018-05-13T03:30:26.159Z,16.47
2018-05-13T03:31:26.124Z,16.35
2018-05-13T03:32:26.090Z,16.36
2018-05-13T03:33:26.057Z,16.38
2018-05-13T03:34:26.027Z,16.38
2018-05-13T03:35:26.008Z,16.31
2018-05-13T03:36:25.958Z,16.35
2018-05-13T03:37:25.921Z,16.38
2018-05-13T03:38:25.893Z,16.32
2018-05-13T03:39:25.856Z,16.29
2018-05-13T03:40:25.823Z,16.23
2018-05-13T03:41:25.792Z,16.17
2018-05-13T03:42:25.751Z,16.15
2018-05-13T03:43:25.715Z,16.13
2018-05-13T03:44:25.680Z,16.13
2018-05-13T03:45:25.651Z,16.15
2018-05-13T03:46:25.618Z,16.09
2018-05-13T03:47:25.588Z,15.95
2018-05-13T03:48:25.551Z,16.02
2018-05-13T03:49:25.516Z,15.97
2018-05-13T03:50:25.480Z,16.05
2018-05-13T03:51:25.447Z,15.92
2018-05-13T03:52:25.420Z,15.80
2018-05-13T03:53:25.384Z,15.70
2018-05-13T03:54:25.373Z,15.73
2018-05-13T03:55:25.309Z,15.76
2018-05-13T03:56:25.275Z,15.79
2018-05-13T03:57:25.239Z,15.77
2018-05-13T03:58:25.209Z,15.91
2018-05-13T03:59:25.188Z,15.83
2018-05-13T04:00:25.142Z,15.91
2018-05-13T04:01:25.111Z,15.91
2018-05-13T04:02:25.075Z,15.84
2018-05-13T04:03:25.036Z,15.84
2018-05-13T04:04:25.004Z,15.92
2018-05-13T04:05:24.968Z,15.92
2018-05-13T04:06:24.942Z,15.94
2018-05-13T04:07:24.911Z,16.09
2018-05-13T04:08:24.869Z,15.94
2018-05-13T04:09:24.828Z,15.98
2018-05-13T04:10:24.801Z,15.97
2018-05-13T04:11:24.767Z,15.98
2018-05-13T04:12:24.733Z,15.97
2018-05-13T04:13:24.711Z,15.97
2018-05-13T04:14:24.664Z,15.92
2018-05-13T04:15:24.629Z,15.95
2018-05-13T04:16:24.593Z,16.00
2018-05-13T04:17:24.558Z,16.02
2018-05-13T04:18:24.530Z,15.94
2018-05-13T04:19:24.496Z,15.90
2018-05-13T04:20:24.459Z,15.94
2018-05-13T04:21:24.425Z,15.95
2018-05-13T04:22:24.389Z,15.97
2018-05-13T04:23:24.348Z,15.91
2018-05-13T04:24:24.322Z,15.91
2018-05-13T04:25:24.287Z,15.79
2018-05-13T04:26:24.250Z,15.76
2018-05-13T04:27:24.217Z,15.70
2018-05-13T04:28:24.181Z,15.75
2018-05-13T04:29:24.148Z,15.70
2018-05-13T04:30:24.118Z,15.64
2018-05-13T04:31:24.084Z,15.65
2018-05-13T04:32:24.051Z,15.67
2018-05-13T04:33:24.013Z,15.57
2018-05-13T04:34:23.978Z,15.58
2018-05-13T04:35:23.939Z,15.59
2018-05-13T04:36:23.904Z,15.61
2018-05-13T04:37:23.907Z,15.70
2018-05-13T04:38:23.841Z,15.62
2018-05-13T04:39:23.819Z,15.65
2018-05-13T04:40:23.765Z,15.72
2018-05-13T04:41:23.739Z,15.73
2018-05-13T04:42:23.702Z,15.67
2018-05-13T04:43:23.670Z,15.75
2018-05-13T04:44:23.635Z,15.68
2018-05-13T04:45:23.607Z,15.62
2018-05-13T04:46:23.564Z,15.61
2018-05-13T04:47:23.527Z,15.61
2018-05-13T04:48:23.492Z,15.59
2018-05-13T04:49:23.462Z,15.57
2018-05-13T04:50:23.433Z,15.62
2018-05-13T04:51:23.395Z,15.55
2018-05-13T04:52:23.359Z,15.59
2018-05-13T04:53:23.346Z,15.59
2018-05-13T04:54:23.290Z,15.59
2018-05-13T04:55:23.251Z,15.62
2018-05-13T04:56:23.223Z,15.46
2018-05-13T04:57:23.186Z,15.55
2018-05-13T04:58:23.151Z,15.49
2018-05-13T04:59:23.115Z,15.39
2018-05-13T05:00:23.079Z,15.33
2018-05-13T05:01:23.050Z,15.33
2018-05-13T05:02:23.019Z,15.28
2018-05-13T05:03:22.982Z,15.19
2018-05-13T05:04:22.947Z,15.29
2018-05-13T05:05:22.920Z,15.19
2018-05-13T05:06:22.880Z,15.03
2018-05-13T05:07:22.840Z,15.15
2018-05-13T05:08:22.805Z,15.15
2018-05-13T05:09:22.771Z,15.24
2018-05-13T05:10:22.740Z,15.25
2018-05-13T05:11:22.711Z,15.29
2018-05-13T05:12:22.666Z,15.33
2018-05-13T05:13:22.632Z,15.37
2018-05-13T05:14:22.608Z,15.46
2018-05-13T05:15:22.574Z,15.47
2018-05-13T05:16:22.534Z,15.51
2018-05-13T05:17:22.504Z,15.58
2018-05-13T05:18:22.462Z,15.59
2018-05-13T05:19:22.426Z,15.55
2018-05-13T05:20:22.390Z,15.52
2018-05-13T05:21:22.359Z,15.61
2018-05-13T05:22:22.371Z,15.58
2018-05-13T05:23:22.291Z,15.57
2018-05-13T05:24:22.267Z,15.58
2018-05-13T05:25:22.224Z,15.49
2018-05-13T05:26:22.187Z,15.57
2018-05-13T05:27:22.156Z,15.49
2018-05-13T05:28:22.120Z,15.59
2018-05-13T05:29:22.085Z,15.54
2018-05-13T05:30:22.053Z,15.61
2018-05-13T05:31:22.012Z,15.61
2018-05-13T05:32:21.977Z,15.67
2018-05-13T05:33:21.950Z,15.61
2018-05-13T05:34:21.915Z,15.67
2018-05-13T05:35:21.881Z,15.67
2018-05-13T05:36:21.849Z,15.67
2018-05-13T05:37:21.810Z,15.62
2018-05-13T05:38:21.775Z,15.72
2018-05-13T05:39:21.738Z,15.77
2018-05-13T05:40:21.699Z,15.76
2018-05-13T05:41:21.671Z,15.77
2018-05-13T05:42:21.645Z,15.70
2018-05-13T05:43:21.607Z,15.80
2018-05-13T05:44:21.566Z,15.77
2018-05-13T05:45:21.534Z,15.68
2018-05-13T05:46:21.500Z,15.76
2018-05-13T05:47:21.469Z,15.75
2018-05-13T05:48:21.501Z,15.65
2018-05-13T05:49:21.397Z,15.75
2018-05-13T05:50:21.358Z,15.75
2018-05-13T05:51:21.327Z,15.76
2018-05-13T05:52:21.294Z,15.67
2018-05-13T05:53:21.261Z,15.75
2018-05-13T05:54:21.225Z,15.70
2018-05-13T05:55:21.194Z,15.72
2018-05-13T05:56:21.157Z,15.61
2018-05-13T05:57:21.125Z,15.64
2018-05-13T05:58:21.087Z,15.57
2018-05-13T05:59:21.050Z,15.57
2018-05-13T06:00:21.023Z,15.51
2018-05-13T06:01:20.989Z,15.62
2018-05-13T06:02:20.953Z,15.57
2018-05-13T06:03:20.928Z,15.55
2018-05-13T06:04:20.878Z,15.55
2018-05-13T06:05:20.868Z,15.61
2018-05-13T06:06:20.818Z,15.49
2018-05-13T06:07:20.782Z,15.54
2018-05-13T06:08:20.752Z,15.59
2018-05-13T06:09:20.714Z,15.46
2018-05-13T06:10:20.677Z,15.49
2018-05-13T06:11:20.640Z,15.43
2018-05-13T06:12:20.634Z,15.36
2018-05-13T06:13:20.573Z,15.35
2018-05-13T06:14:20.541Z,15.28
2018-05-13T06:15:20.511Z,15.25
2018-05-13T06:16:20.468Z,15.21
2018-05-13T06:17:20.437Z,15.22
2018-05-13T06:18:20.404Z,15.22
2018-05-13T06:19:20.374Z,15.19
2018-05-13T06:20:20.337Z,15.19
2018-05-13T06:21:20.304Z,15.22
2018-05-13T06:22:20.263Z,15.21
2018-05-13T06:23:20.229Z,15.22
2018-05-13T06:24:20.200Z,15.18
2018-05-13T06:25:20.194Z,15.27
2018-05-13T06:26:20.130Z,15.37
2018-05-13T06:27:20.096Z,15.37
2018-05-13T06:28:20.061Z,15.37
2018-05-13T06:29:20.022Z,15.40
2018-05-13T06:30:19.993Z,15.51
2018-05-13T06:31:19.959Z,15.46
2018-05-13T06:32:19.926Z,15.54
2018-05-13T06:33:19.896Z,15.55
2018-05-13T06:34:19.849Z,15.57
2018-05-13T06:35:19.814Z,15.59
2018-05-13T06:36:19.783Z,15.68
2018-05-13T06:37:19.753Z,15.67
2018-05-13T06:38:19.736Z,15.55
2018-05-13T06:39:19.701Z,15.62
2018-05-13T06:40:19.656Z,15.46
2018-05-13T06:41:19.616Z,15.61
2018-05-13T06:42:19.580Z,15.58
2018-05-13T06:43:19.541Z,15.54
2018-05-13T06:44:19.506Z,15.58
2018-05-13T06:45:19.565Z,15.65
2018-05-13T06:46:19.444Z,15.64
2018-05-13T06:47:19.412Z,15.67
2018-05-13T06:48:19.368Z,15.70
2018-05-13T06:50:51.412Z,15.77
2018-05-13T06:51:51.334Z,15.73
2018-05-13T06:52:51.294Z,15.73
2018-05-13T06:53:51.274Z,15.80
2018-05-13T06:54:51.231Z,15.91
2018-05-13T06:55:51.279Z,15.92
2018-05-13T06:56:51.168Z,15.86
2018-05-13T06:57:51.122Z,15.83
2018-05-13T06:58:51.095Z,15.83
2018-05-13T06:59:51.056Z,15.84
2018-05-13T07:00:51.021Z,15.82
2018-05-13T07:01:50.996Z,15.88
2018-05-13T07:02:51.062Z,15.95
2018-05-13T07:03:50.922Z,15.65
2018-05-13T07:04:50.890Z,15.72
2018-05-13T07:05:50.852Z,15.54
2018-05-13T07:06:50.820Z,15.58
2018-05-13T07:07:50.786Z,15.55
2018-05-13T07:08:50.756Z,15.57
2018-05-13T07:09:50.717Z,15.55
2018-05-13T07:10:50.684Z,15.59
2018-05-13T07:11:50.648Z,15.51
2018-05-13T07:12:50.611Z,15.47
2018-05-13T07:13:50.592Z,15.49
2018-05-13T07:14:50.547Z,15.49
2018-05-13T07:15:50.510Z,15.59
2018-05-13T07:16:50.481Z,15.61
2018-05-13T07:17:50.437Z,15.64
2018-05-13T07:18:50.407Z,15.58
2018-05-13T07:19:50.376Z,15.68
2018-05-13T07:20:50.335Z,15.65
2018-05-13T07:21:50.309Z,15.67
2018-05-13T07:22:50.281Z,15.62
2018-05-13T07:23:50.235Z,15.67
2018-05-13T07:24:50.206Z,15.70
2018-05-13T07:25:50.174Z,15.75
2018-05-13T07:26:50.138Z,15.94
2018-05-13T07:27:50.104Z,15.91
2018-05-13T07:28:50.072Z,15.83
2018-05-13T07:29:50.083Z,15.82
2018-05-13T07:30:49.999Z,15.82
2018-05-13T07:31:49.963Z,15.94
2018-05-13T07:32:49.936Z,15.88
2018-05-13T07:33:49.898Z,15.84
2018-05-13T07:34:49.866Z,15.73
2018-05-13T07:35:49.830Z,15.75
2018-05-13T07:36:49.803Z,15.64
2018-05-13T07:37:49.757Z,15.76
2018-05-13T07:38:49.730Z,15.75
2018-05-13T07:39:49.693Z,15.68
2018-05-13T07:40:49.662Z,15.73
2018-05-13T07:41:49.617Z,15.79
2018-05-13T07:42:49.588Z,15.61
2018-05-13T07:43:49.553Z,15.57
2018-05-13T07:44:49.518Z,15.58
2018-05-13T07:45:49.487Z,15.64
2018-05-13T07:46:49.451Z,15.55
2018-05-13T07:47:49.421Z,15.61
2018-05-13T07:48:49.385Z,15.54
2018-05-13T07:49:49.345Z,15.47
2018-05-13T07:50:49.315Z,15.46
2018-05-13T07:51:49.281Z,15.37
2018-05-13T07:52:49.244Z,15.44
2018-05-13T07:53:49.235Z,15.43
2018-05-13T07:54:49.181Z,15.42
2018-05-13T07:55:49.142Z,15.31
2018-05-13T07:56:49.105Z,15.39
2018-05-13T07:57:49.152Z,15.22
2018-05-13T07:58:49.042Z,15.07
2018-05-13T07:59:49.006Z,15.11
2018-05-13T08:00:48.976Z,15.09
2018-05-13T08:01:48.934Z,14.99
2018-05-13T08:02:48.901Z,14.99
2018-05-13T08:03:48.866Z,14.97
2018-05-13T08:04:48.837Z,14.96
2018-05-13T08:05:48.803Z,14.91
2018-05-13T08:06:48.765Z,14.97
2018-05-13T08:07:48.729Z,14.89
2018-05-13T08:08:48.701Z,14.88
2018-05-13T08:09:48.659Z,14.88
2018-05-13T08:10:48.625Z,14.73
2018-05-13T08:11:48.592Z,14.72
2018-05-13T08:12:48.587Z,14.79
2018-05-13T08:13:48.518Z,14.79
2018-05-13T08:14:48.488Z,14.81
2018-05-13T08:15:48.460Z,14.88
2018-05-13T08:16:48.425Z,14.78
2018-05-13T08:17:48.386Z,14.79
2018-05-13T08:18:48.349Z,14.78
2018-05-13T08:19:48.317Z,14.77
2018-05-13T08:20:48.280Z,14.79
2018-05-13T08:21:48.239Z,14.92
2018-05-13T08:22:48.219Z,14.91
2018-05-13T08:23:48.174Z,14.96
2018-05-13T08:24:48.141Z,15.02
2018-05-13T08:25:48.107Z,15.02
2018-05-13T08:26:48.072Z,14.89
2018-05-13T08:27:48.035Z,14.89
2018-05-13T08:28:48.002Z,14.82
2018-05-13T08:29:47.970Z,14.88
2018-05-13T08:30:47.937Z,14.96
2018-05-13T08:31:47.900Z,14.89
2018-05-13T08:32:47.864Z,14.77
2018-05-13T08:33:47.883Z,14.69
2018-05-13T08:34:47.791Z,14.78
2018-05-13T08:35:47.760Z,14.78
2018-05-13T08:36:47.721Z,14.77
2018-05-13T08:37:47.698Z,14.72
2018-05-13T08:38:47.652Z,14.68
2018-05-13T08:39:47.619Z,14.68
2018-05-13T08:40:47.585Z,14.55
2018-05-13T08:41:47.643Z,14.44
2018-05-13T08:42:47.516Z,14.55
2018-05-13T08:43:47.477Z,14.45
2018-05-13T08:44:47.445Z,14.53
2018-05-13T08:45:47.406Z,14.51
2018-05-13T08:46:47.377Z,14.36
2018-05-13T08:47:47.340Z,14.44
2018-05-13T08:48:47.302Z,14.43
2018-05-13T08:49:47.271Z,14.36
2018-05-13T08:50:47.235Z,14.32
2018-05-13T08:51:47.200Z,14.35
2018-05-13T08:52:47.168Z,14.33
2018-05-13T08:53:47.151Z,14.26
2018-05-13T08:54:47.094Z,14.23
2018-05-13T08:55:47.059Z,14.33
2018-05-13T08:56:47.027Z,14.28
2018-05-13T08:57:47.010Z,14.22
2018-05-13T08:58:46.962Z,14.20
2018-05-13T08:59:46.923Z,14.26
2018-05-13T09:00:46.883Z,14.18
2018-05-13T09:01:46.857Z,14.25
2018-05-13T09:02:46.817Z,14.17
2018-05-13T09:03:46.780Z,14.10
2018-05-13T09:04:46.752Z,14.12
2018-05-13T09:05:46.712Z,14.15
2018-05-13T09:06:46.675Z,14.22
2018-05-13T09:07:46.635Z,14.22
2018-05-13T09:08:46.609Z,14.28
2018-05-13T09:09:46.592Z,14.15
2018-05-13T09:10:46.535Z,14.04
2018-05-13T09:11:46.500Z,14.10
2018-05-13T09:12:46.476Z,14.03
2018-05-13T09:13:46.426Z,14.03
2018-05-13T09:14:46.392Z,14.14
2018-05-13T09:15:46.360Z,14.25
2018-05-13T09:16:46.323Z,14.33
2018-05-13T09:17:46.291Z,14.23
2018-05-13T09:18:46.252Z,14.33
2018-05-13T09:19:46.216Z,14.28
2018-05-13T09:20:46.223Z,14.25
2018-05-13T09:21:46.150Z,14.32
2018-05-13T09:22:46.112Z,14.28
2018-05-13T09:23:46.071Z,14.26
2018-05-13T09:24:46.039Z,14.40
2018-05-13T09:25:46.005Z,14.33
2018-05-13T09:26:45.971Z,14.33
2018-05-13T09:27:45.939Z,14.32
2018-05-13T09:28:45.901Z,14.33
2018-05-13T09:29:45.863Z,14.40
2018-05-13T09:30:45.822Z,14.50
2018-05-13T09:31:45.794Z,14.35
2018-05-13T09:32:45.756Z,14.22
2018-05-13T09:33:45.719Z,14.25
2018-05-13T09:34:45.688Z,14.14
2018-05-13T09:35:45.654Z,14.20
2018-05-13T09:36:45.621Z,14.18
2018-05-13T09:37:45.585Z,14.20
2018-05-13T09:38:45.550Z,14.15
2018-05-13T09:39:45.517Z,14.18
2018-05-13T09:40:45.478Z,14.17
2018-05-13T09:41:45.440Z,14.11
2018-05-13T09:42:45.403Z,14.07
2018-05-13T09:43:45.369Z,14.15
2018-05-13T09:44:45.338Z,14.11
2018-05-13T09:45:45.384Z,14.10
2018-05-13T09:46:45.268Z,14.17
2018-05-13T09:47:45.229Z,14.22
2018-05-13T09:48:45.197Z,14.23
2018-05-13T09:49:45.160Z,14.26
2018-05-13T09:50:45.127Z,14.32
2018-05-13T09:51:45.092Z,14.41
2018-05-13T09:52:45.055Z,14.35
2018-05-13T09:53:45.020Z,14.33
2018-05-13T09:54:44.979Z,14.30
2018-05-13T09:55:44.944Z,14.18
2018-05-13T09:56:44.912Z,14.33
2018-05-13T09:57:44.893Z,14.22
2018-05-13T09:58:44.849Z,14.26
2018-05-13T09:59:44.810Z,14.28
2018-05-13T10:00:44.773Z,14.26
2018-05-13T10:01:44.735Z,14.23
2018-05-13T10:02:44.698Z,14.28
2018-05-13T10:03:44.667Z,14.29
2018-05-13T10:04:44.632Z,14.28
2018-05-13T10:05:44.594Z,14.28
2018-05-13T10:06:44.562Z,14.22
2018-05-13T10:07:44.521Z,14.29
2018-05-13T10:08:44.494Z,14.22
2018-05-13T10:09:44.457Z,14.26
2018-05-13T10:10:44.422Z,14.22
2018-05-13T10:11:44.385Z,14.29
2018-05-13T10:12:44.351Z,14.26
2018-05-13T10:13:44.312Z,14.30
2018-05-13T10:14:44.276Z,14.20
2018-05-13T10:15:44.282Z,14.20
2018-05-13T10:16:44.205Z,14.22
2018-05-13T10:17:44.174Z,14.22
2018-05-13T10:18:44.140Z,14.03
2018-05-13T10:19:44.140Z,14.07
2018-05-13T10:20:44.066Z,14.05
2018-05-13T10:21:44.034Z,14.18
2018-05-13T10:22:43.998Z,14.22
2018-05-13T10:23:43.964Z,14.20
2018-05-13T10:24:43.927Z,14.15
2018-05-13T10:25:43.890Z,14.30
2018-05-13T10:26:43.850Z,14.29
2018-05-13T10:27:43.827Z,14.22
2018-05-13T10:28:43.784Z,14.28
2018-05-13T10:29:43.753Z,14.28
2018-05-13T10:30:43.722Z,14.20
2018-05-13T10:31:43.682Z,14.26
2018-05-13T10:32:43.640Z,14.28
2018-05-13T10:33:43.607Z,14.29
2018-05-13T10:34:43.573Z,14.29
2018-05-13T10:35:43.538Z,14.12
2018-05-13T10:36:43.504Z,14.08
2018-05-13T10:37:43.469Z,14.07
2018-05-13T10:38:43.427Z,13.89
2018-05-13T10:39:43.389Z,13.89
2018-05-13T10:40:43.360Z,13.90
2018-05-13T10:41:43.327Z,13.86
2018-05-13T10:42:43.292Z,13.87
2018-05-13T10:43:43.256Z,13.85
2018-05-13T10:44:43.223Z,13.83
2018-05-13T10:45:43.183Z,13.77
2018-05-13T10:46:43.146Z,13.86
2018-05-13T10:47:43.109Z,13.89
2018-05-13T10:48:43.075Z,13.83
2018-05-13T10:49:43.045Z,13.89
2018-05-13T10:50:43.012Z,13.89
2018-05-13T10:51:42.967Z,13.86
2018-05-13T10:52:42.934Z,13.87
2018-05-13T10:53:42.900Z,13.93
2018-05-13T10:54:42.868Z,13.95
2018-05-13T10:55:42.831Z,13.93
2018-05-13T10:56:42.796Z,14.00
2018-05-13T10:57:42.799Z,14.04
2018-05-13T10:58:42.718Z,14.05
2018-05-13T10:59:42.682Z,14.07
2018-05-13T11:00:42.656Z,13.96
2018-05-13T11:01:42.618Z,13.87
2018-05-13T11:02:42.591Z,13.89
2018-05-13T11:03:42.551Z,13.95
2018-05-13T11:04:42.543Z,14.04
2018-05-13T11:05:42.476Z,14.07
2018-05-13T11:06:42.434Z,14.07
2018-05-13T11:07:42.407Z,14.05
2018-05-13T11:08:42.375Z,14.14
2018-05-13T11:09:42.333Z,14.03
2018-05-13T11:10:42.299Z,13.96
2018-05-13T11:11:42.259Z,13.95
2018-05-13T11:12:42.228Z,13.92
2018-05-13T11:13:42.195Z,13.97
2018-05-13T11:14:42.159Z,13.89
2018-05-13T11:15:42.124Z,13.96
2018-05-13T11:16:42.091Z,13.95
2018-05-13T11:17:42.050Z,13.90
2018-05-13T11:18:42.014Z,13.90
2018-05-13T11:19:41.976Z,13.87
2018-05-13T11:20:42.037Z,13.97
2018-05-13T11:21:41.910Z,13.93
2018-05-13T11:22:41.876Z,13.92
2018-05-13T11:23:41.832Z,13.81
2018-05-13T11:24:41.801Z,13.78
2018-05-13T11:25:41.773Z,13.81
2018-05-13T11:26:41.767Z,13.67
2018-05-13T11:27:41.701Z,13.85
2018-05-13T11:28:41.662Z,13.78
2018-05-13T11:29:41.623Z,13.75
2018-05-13T11:30:41.591Z,13.75
2018-05-13T11:31:41.552Z,13.78
2018-05-13T11:32:41.519Z,13.81
2018-05-13T11:33:41.485Z,13.79
2018-05-13T11:34:41.451Z,13.68
2018-05-13T11:35:41.413Z,13.81
2018-05-13T11:36:41.385Z,13.81
2018-05-13T11:37:41.340Z,13.75
2018-05-13T11:38:41.304Z,13.81
2018-05-13T11:39:41.271Z,13.90
2018-05-13T11:40:41.236Z,13.79
2018-05-13T11:41:41.197Z,13.86
2018-05-13T11:42:41.159Z,13.96
2018-05-13T11:43:41.124Z,13.96
2018-05-13T11:44:41.098Z,13.93
2018-05-13T11:45:41.057Z,13.89
2018-05-13T11:46:41.104Z,13.68
2018-05-13T11:47:40.988Z,13.75
2018-05-13T11:48:40.952Z,13.65
2018-05-13T11:49:40.913Z,13.70
2018-05-13T11:50:40.877Z,13.81
2018-05-13T11:51:40.839Z,13.77
2018-05-13T11:52:40.810Z,13.81
2018-05-13T11:53:40.777Z,13.92
2018-05-13T11:54:40.744Z,13.93
2018-05-13T11:55:40.697Z,13.87
2018-05-13T11:56:40.665Z,13.79
2018-05-13T11:57:40.654Z,13.83
2018-05-13T11:58:40.628Z,13.93
2018-05-13T11:59:40.564Z,13.87
2018-05-13T12:00:40.524Z,13.87
2018-05-13T12:01:40.484Z,13.77
2018-05-13T12:02:40.455Z,13.75
2018-05-13T12:03:40.413Z,13.90
2018-05-13T12:04:40.379Z,13.83
2018-05-13T12:05:40.351Z,13.93
2018-05-13T12:06:40.311Z,13.93
2018-05-13T12:07:40.278Z,13.96
2018-05-13T12:08:40.652Z,13.89
2018-05-13T12:09:40.202Z,13.90
2018-05-13T12:10:40.162Z,13.90
2018-05-13T12:11:40.132Z,13.96
2018-05-13T12:12:40.096Z,14.00
2018-05-13T12:13:40.084Z,14.00
2018-05-13T12:14:40.021Z,13.92
2018-05-13T12:15:39.986Z,13.93
2018-05-13T12:16:39.955Z,13.78
2018-05-13T12:17:39.925Z,13.81
2018-05-13T12:18:39.883Z,13.75
2018-05-13T12:19:39.849Z,13.87
2018-05-13T12:20:39.818Z,13.83
2018-05-13T12:21:39.777Z,13.77
2018-05-13T12:22:39.738Z,13.79
2018-05-13T12:23:39.700Z,13.78
2018-05-13T12:24:39.669Z,13.71
2018-05-13T12:25:39.635Z,13.79
2018-05-13T12:26:39.600Z,13.86
2018-05-13T12:27:39.560Z,13.90
2018-05-13T12:28:39.526Z,13.77
2018-05-13T12:29:39.494Z,13.93
2018-05-13T12:30:39.460Z,13.89
2018-05-13T12:31:39.425Z,13.99
2018-05-13T12:32:39.403Z,13.95
2018-05-13T12:33:39.346Z,14.07
2018-05-13T12:34:39.312Z,14.11
2018-05-13T12:35:39.275Z,14.17
2018-05-13T12:36:39.240Z,14.15
2018-05-13T12:37:39.208Z,14.11
2018-05-13T12:38:39.182Z,14.17
2018-05-13T12:39:39.193Z,14.18
2018-05-13T12:40:39.101Z,14.18
2018-05-13T12:41:39.066Z,14.18
2018-05-13T12:42:39.059Z,14.18
2018-05-13T12:43:39.001Z,14.05
2018-05-13T12:44:38.967Z,14.25
2018-05-13T12:45:38.925Z,14.23
2018-05-13T12:46:38.884Z,14.05
2018-05-13T12:47:38.849Z,14.17
2018-05-13T12:48:38.816Z,14.22
2018-05-13T12:49:38.786Z,14.35
2018-05-13T12:50:38.751Z,14.25
2018-05-13T12:51:38.717Z,14.20
2018-05-13T12:52:38.674Z,14.22
2018-05-13T12:53:38.638Z,14.36